Time;durP1;ratioP1;P1;durP2;ratioP2;P2;SDS_P1;SDS_P2;PMS_P1;PMS_P2;Temp;Humidity;BMP_temperature;BMP_pressure;BME280_temperature;BME280_humidity;BME280_pressure;Samples;Min_cycle;Max_cycle;Signal;HPM_P1;HPM_P2
2023/08/18 00:01:20;;;;;;;7.30;5.77;;;21.60;99.90;;;;;;5036700;28;20526;-66
2023/08/18 00:03:45;;;;;;;6.60;6.00;;;21.50;99.90;;;;;;5034771;28;20535;-65
2023/08/18 00:06:11;;;;;;;6.50;5.90;;;21.40;99.90;;;;;;5033819;28;20449;-66
2023/08/18 00:08:37;;;;;;;7.38;6.75;;;21.40;99.90;;;;;;5035002;28;20189;-66
2023/08/18 00:11:03;;;;;;;7.87;7.17;;;21.40;99.90;;;;;;5036659;28;20670;-65
2023/08/18 00:13:28;;;;;;;7.53;6.80;;;21.20;99.90;;;;;;5032218;28;20650;-65
2023/08/18 00:15:54;;;;;;;9.53;6.93;;;21.10;99.90;;;;;;5037624;28;20226;-65
2023/08/18 00:18:20;;;;;;;7.53;6.57;;;21.10;99.90;;;;;;5032599;28;20217;-66
2023/08/18 00:20:45;;;;;;;7.60;6.83;;;21.10;99.90;;;;;;5037559;28;20965;-65
2023/08/18 00:23:11;;;;;;;6.77;6.03;;;20.90;99.90;;;;;;5033780;28;20209;-66
2023/08/18 00:25:36;;;;;;;7.53;6.83;;;20.90;99.90;;;;;;5036238;28;20213;-65
2023/08/18 00:28:02;;;;;;;7.27;6.57;;;20.90;99.90;;;;;;5029938;28;20636;-65
2023/08/18 00:30:28;;;;;;;6.70;5.63;;;20.90;99.90;;;;;;5034257;28;20591;-65
2023/08/18 00:32:53;;;;;;;6.90;6.20;;;20.90;99.90;;;;;;5035266;28;20507;-65
2023/08/18 00:35:19;;;;;;;6.60;6.00;;;20.90;99.90;;;;;;5033113;28;20187;-65
2023/08/18 00:37:45;;;;;;;8.40;6.30;;;20.90;99.90;;;;;;5030354;28;20243;-66
2023/08/18 00:40:11;;;;;;;6.83;6.20;;;20.90;99.90;;;;;;5035901;28;20854;-66
2023/08/18 00:42:37;;;;;;;6.47;5.97;;;20.80;99.90;;;;;;5031638;28;20487;-66
2023/08/18 00:45:03;;;;;;;6.87;6.37;;;20.80;99.90;;;;;;5029466;28;20953;-65
2023/08/18 00:47:30;;;;;;;6.70;6.20;;;20.80;99.90;;;;;;5030452;28;20456;-66
2023/08/18 00:49:57;;;;;;;7.50;6.15;;;20.80;99.90;;;;;;5035674;28;20934;-65
2023/08/18 00:52:23;;;;;;;8.25;5.60;;;20.80;99.90;;;;;;5030653;28;20205;-67
2023/08/18 00:54:51;;;;;;;6.10;5.50;;;20.90;99.90;;;;;;5031217;28;20194;-68
2023/08/18 00:57:17;;;;;;;5.78;5.18;;;20.90;99.90;;;;;;5037084;28;20209;-68
2023/08/18 00:59:43;;;;;;;5.97;5.00;;;20.90;99.90;;;;;;5030034;28;20256;-68
2023/08/18 01:02:09;;;;;;;6.27;5.57;;;20.90;99.90;;;;;;5035247;28;20178;-68
2023/08/18 01:04:35;;;;;;;6.27;5.67;;;20.90;99.90;;;;;;5031400;28;20808;-68
2023/08/18 01:07:01;;;;;;;6.53;5.87;;;20.80;99.90;;;;;;5032671;28;20456;-68
2023/08/18 01:09:27;;;;;;;5.27;4.77;;;20.80;99.90;;;;;;5034140;28;20283;-68
2023/08/18 01:12:08;;;;;;;6.10;5.50;;;20.80;99.90;;;;;;5034276;28;20182;-68
2023/08/18 01:14:42;;;;;;;6.50;6.00;;;20.90;99.90;;;;;;5030076;28;20673;-68
2023/08/18 01:17:17;;;;;;;6.78;6.18;;;20.80;99.90;;;;;;5032381;28;20216;-68
2023/08/18 01:19:45;;;;;;;7.35;6.05;;;20.70;99.90;;;;;;5035206;28;20622;-68
2023/08/18 01:22:13;;;;;;;6.00;5.50;;;20.60;99.90;;;;;;5031004;28;20178;-67
2023/08/18 01:24:40;;;;;;;5.93;5.47;;;20.10;99.90;;;;;;5029601;28;20375;-67
2023/08/18 01:27:06;;;;;;;5.70;5.28;;;20.50;99.90;;;;;;5035068;28;20236;-68
2023/08/18 01:29:31;;;;;;;6.43;5.93;;;20.50;99.90;;;;;;5034564;28;20655;-68
2023/08/18 01:32:00;;;;;;;5.97;5.47;;;20.40;99.90;;;;;;5036442;28;20670;-68
2023/08/18 01:34:29;;;;;;;6.05;5.55;;;20.40;99.90;;;;;;5037768;28;20679;-68
2023/08/18 01:36:57;;;;;;;6.55;6.05;;;20.40;99.90;;;;;;5037983;28;20198;-68
2023/08/18 01:39:24;;;;;;;5.40;5.00;;;20.30;99.90;;;;;;5033588;28;20190;-68
2023/08/18 01:41:52;;;;;;;8.35;6.13;;;20.30;99.90;;;;;;5036461;28;20220;-68
2023/08/18 01:44:18;;;;;;;6.82;5.85;;;20.20;99.90;;;;;;5031204;28;20231;-68
2023/08/18 01:46:45;;;;;;;6.60;6.00;;;20.10;99.90;;;;;;5036166;28;20284;-68
2023/08/18 01:49:10;;;;;;;5.95;5.35;;;20.00;99.90;;;;;;5033096;28;20240;-67
2023/08/18 01:51:36;;;;;;;6.50;5.90;;;20.00;99.90;;;;;;5029106;28;20585;-67
2023/08/18 01:54:02;;;;;;;9.13;5.00;;;20.00;99.90;;;;;;5033341;28;20204;-68
2023/08/18 01:56:28;;;;;;;6.15;5.63;;;20.10;99.90;;;;;;5032578;28;20697;-68
2023/08/18 01:58:54;;;;;;;6.87;6.17;;;20.00;99.90;;;;;;5023932;28;20202;-68
2023/08/18 02:01:19;;;;;;;6.17;5.60;;;20.00;99.90;;;;;;5033971;28;20196;-68
2023/08/18 02:03:45;;;;;;;6.47;5.40;;;20.00;99.90;;;;;;5032165;28;20269;-68
2023/08/18 02:06:10;;;;;;;8.67;5.60;;;20.10;99.90;;;;;;5035819;28;20218;-68
2023/08/18 02:08:36;;;;;;;7.20;6.50;;;20.00;99.90;;;;;;5027385;28;20198;-68
2023/08/18 02:11:03;;;;;;;6.07;5.57;;;20.00;99.90;;;;;;5034674;28;20300;-68
2023/08/18 02:13:30;;;;;;;6.32;5.70;;;19.90;99.90;;;;;;5033268;28;20217;-68
2023/08/18 02:15:55;;;;;;;5.95;5.35;;;19.90;99.90;;;;;;5032089;28;20810;-67
2023/08/18 02:18:21;;;;;;;6.37;5.87;;;19.90;99.90;;;;;;5032731;28;20273;-68
2023/08/18 02:20:47;;;;;;;6.17;5.67;;;19.50;99.90;;;;;;5032575;28;20222;-68
2023/08/18 02:23:12;;;;;;;8.33;6.73;;;19.80;99.90;;;;;;5034256;28;20578;-68
2023/08/18 02:25:38;;;;;;;6.23;5.73;;;19.50;99.90;;;;;;5033176;28;20569;-68
2023/08/18 02:28:04;;;;;;;6.17;5.67;;;19.80;99.90;;;;;;5030084;28;20501;-68
2023/08/18 02:30:29;;;;;;;10.70;6.07;;;19.80;99.90;;;;;;5029054;28;20195;-68
2023/08/18 02:32:55;;;;;;;6.10;5.53;;;19.70;99.90;;;;;;5027440;28;20665;-67
2023/08/18 02:35:20;;;;;;;6.30;5.77;;;19.80;99.90;;;;;;5028711;28;20198;-67
2023/08/18 02:37:46;;;;;;;6.13;5.63;;;19.70;99.90;;;;;;5023012;28;20204;-66
2023/08/18 02:40:11;;;;;;;6.93;6.27;;;19.70;99.90;;;;;;5029546;28;20224;-66
2023/08/18 02:42:37;;;;;;;6.23;5.63;;;19.70;99.90;;;;;;5031363;28;20306;-67
2023/08/18 02:45:03;;;;;;;6.10;5.53;;;19.70;99.90;;;;;;5022172;28;20231;-67
2023/08/18 02:47:28;;;;;;;5.70;5.20;;;19.70;99.90;;;;;;5029738;28;20205;-67
2023/08/18 02:49:54;;;;;;;6.43;5.80;;;19.70;99.90;;;;;;5032170;28;20190;-67
2023/08/18 02:52:19;;;;;;;6.37;5.77;;;19.70;99.90;;;;;;5028207;28;20255;-67
2023/08/18 02:54:45;;;;;;;6.73;5.83;;;19.60;99.90;;;;;;5026388;28;20177;-67
2023/08/18 02:57:10;;;;;;;6.20;5.57;;;19.60;99.90;;;;;;5021721;28;20229;-67
2023/08/18 02:59:36;;;;;;;6.57;5.90;;;19.50;99.90;;;;;;5027305;28;20459;-67
2023/08/18 03:02:01;;;;;;;6.10;5.50;;;19.50;99.90;;;;;;5022844;28;20786;-66
2023/08/18 03:04:27;;;;;;;6.60;4.80;;;19.50;99.90;;;;;;5027833;28;20243;-67
2023/08/18 03:06:52;;;;;;;7.10;5.13;;;19.50;99.90;;;;;;5020961;28;20207;-66
2023/08/18 03:09:18;;;;;;;6.57;5.57;;;19.50;99.90;;;;;;5029142;28;20189;-67
2023/08/18 03:11:44;;;;;;;7.37;5.87;;;19.50;99.90;;;;;;5022093;28;20274;-67
2023/08/18 03:14:09;;;;;;;5.93;5.40;;;19.40;99.90;;;;;;5029735;28;20254;-67
2023/08/18 03:16:35;;;;;;;7.83;6.13;;;19.40;99.90;;;;;;5026778;28;20244;-67
2023/08/18 03:19:00;;;;;;;6.10;5.03;;;19.40;99.90;;;;;;5031204;28;20288;-66
2023/08/18 03:21:26;;;;;;;6.40;5.80;;;19.70;99.90;;;;;;5026720;28;20190;-67
2023/08/18 03:23:51;;;;;;;10.27;5.43;;;19.40;99.90;;;;;;5025164;28;20649;-66
2023/08/18 03:26:17;;;;;;;7.50;5.30;;;19.30;99.90;;;;;;5030818;28;20216;-66
2023/08/18 03:28:43;;;;;;;6.50;5.70;;;19.30;99.90;;;;;;5028615;28;20218;-67
2023/08/18 03:31:08;;;;;;;7.10;6.30;;;19.60;99.90;;;;;;5032136;28;20197;-67
2023/08/18 03:33:35;;;;;;;6.70;5.77;;;19.30;99.90;;;;;;5028587;28;20194;-67
2023/08/18 03:36:00;;;;;;;6.50;5.97;;;19.20;99.90;;;;;;5033109;28;20676;-67
2023/08/18 03:38:26;;;;;;;7.30;6.30;;;19.20;99.90;;;;;;5024840;28;20308;-67
2023/08/18 03:41:05;;;;;;;6.57;5.27;;;19.20;99.90;;;;;;5027385;28;20243;-67
2023/08/18 03:43:32;;;;;;;7.57;6.40;;;19.20;99.90;;;;;;5024854;28;20322;-67
2023/08/18 03:46:01;;;;;;;6.00;5.50;;;19.10;99.90;;;;;;5026064;28;20205;-67
2023/08/18 03:48:27;;;;;;;6.60;6.05;;;19.00;99.90;;;;;;5030820;28;20183;-67
2023/08/18 03:50:52;;;;;;;6.37;5.70;;;19.00;99.90;;;;;;5027919;28;20244;-67
2023/08/18 03:53:22;;;;;;;7.50;5.50;;;19.00;99.90;;;;;;5031036;28;20484;-67
2023/08/18 03:55:55;;;;;;;7.25;5.78;;;19.00;99.90;;;;;;5030309;28;20229;-67
2023/08/18 03:58:21;;;;;;;6.03;5.53;;;19.00;99.90;;;;;;5026220;28;20183;-67
2023/08/18 04:00:46;;;;;;;6.33;5.73;;;19.00;99.90;;;;;;5024906;28;20190;-67
2023/08/18 04:03:12;;;;;;;7.47;5.83;;;19.00;99.90;;;;;;5024531;28;20206;-67
2023/08/18 04:05:44;;;;;;;6.33;5.80;;;18.90;99.90;;;;;;5021944;28;20301;-67
2023/08/18 04:08:10;;;;;;;5.38;4.80;;;19.20;99.90;;;;;;5030580;28;20496;-66
2023/08/18 04:10:35;;;;;;;6.53;5.90;;;19.00;99.90;;;;;;5031521;28;20184;-67
2023/08/18 04:13:01;;;;;;;6.23;5.63;;;19.20;99.90;;;;;;5030662;28;20195;-67
2023/08/18 04:15:26;;;;;;;7.10;6.40;;;18.90;99.90;;;;;;5033622;28;20193;-67
2023/08/18 04:17:52;;;;;;;7.70;6.30;;;18.90;99.90;;;;;;5030505;28;20194;-67
2023/08/18 04:20:17;;;;;;;7.93;6.20;;;18.90;99.90;;;;;;5033445;28;20221;-67
2023/08/18 04:22:43;;;;;;;6.77;6.17;;;18.90;99.90;;;;;;5037066;28;20566;-67
2023/08/18 04:25:09;;;;;;;7.20;6.30;;;18.80;99.90;;;;;;5035078;28;20255;-67
2023/08/18 04:27:34;;;;;;;8.33;6.90;;;18.70;99.90;;;;;;5036153;28;20201;-67
2023/08/18 04:30:00;;;;;;;6.40;5.80;;;18.60;99.90;;;;;;5037911;28;20185;-67
2023/08/18 04:32:25;;;;;;;7.10;5.43;;;18.70;99.90;;;;;;5033437;28;20195;-67
2023/08/18 04:34:51;;;;;;;6.73;6.13;;;18.80;99.90;;;;;;5038366;28;20189;-67
2023/08/18 04:37:16;;;;;;;8.13;5.87;;;18.70;99.90;;;;;;5027919;28;20202;-67
2023/08/18 04:39:42;;;;;;;6.60;5.90;;;18.70;99.90;;;;;;5034140;28;20192;-67
2023/08/18 04:42:08;;;;;;;6.37;5.67;;;19.10;99.90;;;;;;5031602;28;20185;-67
2023/08/18 04:44:33;;;;;;;6.43;5.83;;;18.80;99.90;;;;;;5037911;28;20237;-68
2023/08/18 04:47:03;;;;;;;7.00;6.30;;;19.10;99.90;;;;;;5020819;28;20218;-67
2023/08/18 04:49:28;;;;;;;8.43;6.05;;;18.80;99.90;;;;;;5026039;28;20189;-64
2023/08/18 04:51:54;;;;;;;7.70;6.07;;;18.80;99.90;;;;;;5028843;28;20561;-66
2023/08/18 04:54:19;;;;;;;6.80;6.20;;;18.80;99.90;;;;;;5032372;28;20245;-65
2023/08/18 04:56:46;;;;;;;6.77;6.10;;;18.90;99.90;;;;;;5031073;28;20210;-66
2023/08/18 04:59:11;;;;;;;6.95;6.25;;;18.80;99.90;;;;;;5029338;28;20750;-66
2023/08/18 05:01:37;;;;;;;8.23;5.87;;;18.70;99.90;;;;;;5040132;28;20191;-66
2023/08/18 05:04:03;;;;;;;8.93;7.00;;;18.60;99.90;;;;;;5024951;28;20274;-66
2023/08/18 05:06:28;;;;;;;6.33;5.73;;;18.60;99.90;;;;;;5034052;28;20305;-67
2023/08/18 05:08:54;;;;;;;5.90;5.40;;;18.80;99.90;;;;;;5035083;28;20444;-67
2023/08/18 05:11:19;;;;;;;6.57;5.97;;;18.90;99.90;;;;;;5036728;28;20193;-67
2023/08/18 05:13:45;;;;;;;7.93;6.13;;;18.90;99.90;;;;;;5024931;28;20217;-67
2023/08/18 05:16:11;;;;;;;5.80;5.40;;;19.00;99.90;;;;;;5030454;28;20284;-67
2023/08/18 05:18:36;;;;;;;6.80;5.77;;;19.00;99.90;;;;;;5028455;28;20568;-67
2023/08/18 05:21:03;;;;;;;6.13;5.60;;;19.10;99.90;;;;;;5035113;28;20185;-66
2023/08/18 05:23:30;;;;;;;5.43;5.03;;;19.00;99.90;;;;;;5029371;28;20287;-67
2023/08/18 05:25:56;;;;;;;5.70;5.07;;;19.10;99.90;;;;;;5029631;28;20190;-67
2023/08/18 05:28:23;;;;;;;6.60;5.75;;;19.20;99.90;;;;;;5032230;28;20644;-68
2023/08/18 05:30:49;;;;;;;5.80;5.30;;;19.20;99.90;;;;;;5031389;28;20190;-72
2023/08/18 05:33:15;;;;;;;6.20;5.60;;;19.40;99.90;;;;;;5030214;28;20186;-73
2023/08/18 05:35:41;;;;;;;5.30;4.80;;;19.60;99.90;;;;;;5021645;28;20236;-73
2023/08/18 05:38:10;;;;;;;6.05;5.45;;;19.70;99.90;;;;;;5021688;28;21041;-72
2023/08/18 05:40:39;;;;;;;6.53;5.93;;;20.20;99.90;;;;;;5031901;28;20235;-72
2023/08/18 05:43:05;;;;;;;7.38;6.70;;;19.90;99.90;;;;;;5026418;28;20249;-72
2023/08/18 05:45:30;;;;;;;6.10;5.60;;;20.00;99.90;;;;;;5030093;28;21263;-72
2023/08/18 05:47:56;;;;;;;7.33;6.63;;;19.60;99.90;;;;;;5030990;28;20608;-72
2023/08/18 05:50:22;;;;;;;5.83;5.40;;;20.20;99.90;;;;;;5028467;28;20185;-72
2023/08/18 05:52:47;;;;;;;8.23;4.97;;;20.10;99.90;;;;;;5021319;28;20190;-73
2023/08/18 05:55:13;;;;;;;5.40;4.90;;;20.20;99.90;;;;;;5025276;28;20268;-73
2023/08/18 05:57:41;;;;;;;5.17;4.27;;;20.40;99.90;;;;;;5028558;28;20647;-72
2023/08/18 06:00:10;;;;;;;4.95;4.45;;;20.50;99.90;;;;;;5027252;28;20212;-72
2023/08/18 06:02:35;;;;;;;4.60;4.30;;;20.60;99.90;;;;;;5026823;28;20683;-72
2023/08/18 06:05:01;;;;;;;5.70;5.10;;;20.70;99.90;;;;;;5026167;28;20213;-72
2023/08/18 06:07:27;;;;;;;9.40;5.07;;;20.90;99.90;;;;;;5030205;28;20650;-74
2023/08/18 06:09:52;;;;;;;5.10;4.60;;;20.90;99.90;;;;;;5023644;28;20178;-74
2023/08/18 06:12:18;;;;;;;5.80;4.33;;;21.10;99.90;;;;;;5029266;28;20186;-77
2023/08/18 06:14:43;;;;;;;5.03;4.50;;;21.30;99.90;;;;;;5026551;28;20277;-75
2023/08/18 06:17:09;;;;;;;4.40;4.00;;;21.50;99.90;;;;;;5025488;28;20241;-74
2023/08/18 06:19:34;;;;;;;6.00;4.53;;;21.70;99.90;;;;;;5026097;28;20677;-76
2023/08/18 06:22:00;;;;;;;5.13;4.70;;;21.80;99.90;;;;;;5020351;28;20608;-75
2023/08/18 06:24:25;;;;;;;5.60;4.60;;;21.90;99.90;;;;;;5027005;28;20242;-74
2023/08/18 06:26:51;;;;;;;5.40;4.90;;;22.00;99.90;;;;;;5034277;28;20206;-74
2023/08/18 06:29:16;;;;;;;5.50;4.60;;;22.10;99.90;;;;;;5026727;28;20671;-75
2023/08/18 06:31:42;;;;;;;5.20;4.70;;;22.10;99.90;;;;;;5024001;28;20703;-76
2023/08/18 06:34:08;;;;;;;5.10;4.43;;;22.20;99.90;;;;;;5023844;28;20233;-74
2023/08/18 06:36:33;;;;;;;5.80;4.70;;;22.10;99.90;;;;;;5028642;28;20210;-75
2023/08/18 06:38:59;;;;;;;6.10;5.50;;;22.20;99.90;;;;;;5033076;28;20240;-75
2023/08/18 06:41:24;;;;;;;5.73;4.67;;;22.10;99.90;;;;;;5027341;28;20195;-73
2023/08/18 06:43:50;;;;;;;5.90;4.97;;;22.20;99.90;;;;;;5031922;28;20237;-74
2023/08/18 06:46:16;;;;;;;4.63;4.23;;;22.30;99.90;;;;;;5028511;28;20217;-73
2023/08/18 06:48:42;;;;;;;5.20;4.53;;;22.50;99.90;;;;;;5025921;28;20613;-82
2023/08/18 06:51:07;;;;;;;5.30;4.80;;;22.70;99.90;;;;;;5019785;28;20448;-75
2023/08/18 06:53:33;;;;;;;5.07;4.57;;;22.80;99.90;;;;;;5028401;28;20187;-74
2023/08/18 06:55:58;;;;;;;5.03;4.53;;;23.00;99.90;;;;;;5028549;28;20212;-75
2023/08/18 06:58:24;;;;;;;5.27;4.40;;;23.10;99.90;;;;;;5029756;28;20179;-77
2023/08/18 07:00:49;;;;;;;5.63;5.13;;;23.20;99.90;;;;;;5031011;28;20197;-77
2023/08/18 07:03:15;;;;;;;4.37;4.07;;;23.40;99.90;;;;;;5033015;28;20209;-78
2023/08/18 07:05:41;;;;;;;5.07;4.67;;;23.60;99.90;;;;;;5030126;28;20201;-76
2023/08/18 07:08:08;;;;;;;6.40;5.17;;;24.00;99.90;;;;;;5023693;28;20226;-77
2023/08/18 07:10:34;;;;;;;5.00;4.60;;;24.40;99.90;;;;;;5022840;28;20189;-78
2023/08/18 07:12:59;;;;;;;4.70;4.30;;;24.70;99.90;;;;;;5029041;28;20445;-78
2023/08/18 07:15:25;;;;;;;5.37;3.77;;;25.00;99.90;;;;;;5022801;28;20220;-76
2023/08/18 07:17:50;;;;;;;5.20;3.70;;;26.80;99.60;;;;;;5027211;28;20218;-78
2023/08/18 07:20:16;;;;;;;5.20;4.47;;;30.10;94.60;;;;;;5032335;28;20198;-78
2023/08/18 07:22:41;;;;;;;4.90;4.50;;;33.00;85.20;;;;;;5021639;28;22185;-73
2023/08/18 07:25:10;;;;;;;4.80;4.40;;;34.70;75.20;;;;;;5027557;28;20185;-72
2023/08/18 07:27:36;;;;;;;4.20;3.90;;;36.90;68.10;;;;;;5033966;28;20214;-72
2023/08/18 07:30:02;;;;;;;3.97;3.63;;;38.80;59.90;;;;;;5028940;28;20820;-72
2023/08/18 07:32:28;;;;;;;3.40;3.10;;;40.20;55.60;;;;;;5033840;28;20531;-74
2023/08/18 07:34:53;;;;;;;3.60;3.30;;;41.00;49.50;;;;;;5022008;28;20449;-75
2023/08/18 07:37:19;;;;;;;3.93;3.40;;;40.70;48.00;;;;;;5015328;28;20573;-75
2023/08/18 07:39:45;;;;;;;3.57;3.13;;;41.40;45.80;;;;;;5021440;28;20204;-76
2023/08/18 07:42:10;;;;;;;2.97;2.77;;;42.00;44.30;;;;;;5025692;28;20198;-75
2023/08/18 07:44:36;;;;;;;3.53;3.23;;;41.50;42.90;;;;;;5024586;28;20280;-75
2023/08/18 07:47:03;;;;;;;3.27;2.83;;;42.20;42.90;;;;;;5029274;28;20224;-78
2023/08/18 07:49:28;;;;;;;3.13;2.83;;;43.70;41.20;;;;;;5032937;28;20197;-78
2023/08/18 07:51:54;;;;;;;2.83;2.60;;;44.10;38.60;;;;;;5028462;28;20448;-80
2023/08/18 07:54:20;;;;;;;3.20;2.70;;;43.20;38.90;;;;;;5031940;28;20194;-76
2023/08/18 07:56:45;;;;;;;4.63;2.73;;;42.70;39.70;;;;;;5027930;28;20209;-79
2023/08/18 07:59:11;;;;;;;2.93;2.63;;;43.50;39.00;;;;;;5030613;28;20676;-77
2023/08/18 08:01:36;;;;;;;3.33;3.00;;;44.20;38.30;;;;;;5034134;28;20726;-81
2023/08/18 08:04:03;;;;;;;2.77;2.57;;;42.80;38.10;;;;;;5029346;28;20206;-76
2023/08/18 08:06:29;;;;;;;5.70;2.93;;;43.30;37.70;;;;;;5031324;28;20202;-79
2023/08/18 08:08:54;;;;;;;2.90;2.70;;;43.60;36.90;;;;;;5048050;28;20463;-81
2023/08/18 08:11:20;;;;;;;3.07;2.87;;;44.00;37.00;;;;;;5029439;28;20284;-80
2023/08/18 08:13:46;;;;;;;3.17;2.87;;;43.60;36.50;;;;;;5029491;28;20261;-78
2023/08/18 08:16:11;;;;;;;4.20;2.83;;;44.20;36.50;;;;;;5023753;28;20273;-79
2023/08/18 08:18:37;;;;;;;2.80;2.40;;;43.80;35.90;;;;;;5030203;28;20204;-79
2023/08/18 08:21:02;;;;;;;2.83;2.60;;;43.60;35.90;;;;;;5035108;28;20217;-79
2023/08/18 08:23:28;;;;;;;2.63;2.30;;;42.50;36.00;;;;;;5026130;28;20210;-77
2023/08/18 08:25:54;;;;;;;2.87;2.23;;;43.60;36.10;;;;;;5018577;28;20199;-79
2023/08/18 08:28:19;;;;;;;2.43;1.97;;;43.20;35.00;;;;;;5034939;28;20194;-79
2023/08/18 08:30:45;;;;;;;2.53;2.40;;;43.80;34.50;;;;;;5029562;28;20240;-78
2023/08/18 08:33:11;;;;;;;3.47;2.50;;;43.50;34.60;;;;;;5030798;28;20270;-77
2023/08/18 08:35:37;;;;;;;2.40;2.20;;;44.00;34.50;;;;;;5024850;28;20373;-80
2023/08/18 08:38:03;;;;;;;2.67;2.47;;;44.20;33.70;;;;;;5023663;28;20537;-76
2023/08/18 08:40:29;;;;;;;3.57;2.40;;;43.70;33.50;;;;;;5028653;28;20239;-77
2023/08/18 08:42:56;;;;;;;2.60;2.40;;;44.00;33.00;;;;;;5022936;28;20500;-78
2023/08/18 08:45:23;;;;;;;2.53;2.13;;;43.60;33.30;;;;;;5028684;28;20531;-77
2023/08/18 08:47:50;;;;;;;3.60;2.27;;;44.10;33.00;;;;;;5028078;28;20570;-77
2023/08/18 08:50:17;;;;;;;2.60;2.40;;;44.00;32.70;;;;;;5028497;28;20499;-78
2023/08/18 08:52:48;;;;;;;2.67;2.20;;;44.30;32.90;;;;;;5020919;28;20437;-78
2023/08/18 08:55:16;;;;;;;4.00;2.67;;;44.30;32.00;;;;;;5029680;28;20483;-77
2023/08/18 08:57:42;;;;;;;3.37;2.50;;;44.50;32.20;;;;;;5026223;28;20437;-75
2023/08/18 09:00:09;;;;;;;2.63;2.40;;;45.30;31.50;;;;;;5019488;28;20441;-75
2023/08/18 09:02:36;;;;;;;3.00;2.60;;;45.70;31.50;;;;;;5021457;28;20191;-75
2023/08/18 09:05:02;;;;;;;2.80;2.30;;;45.50;30.90;;;;;;5036295;28;20448;-79
2023/08/18 09:07:28;;;;;;;2.30;2.10;;;45.90;30.50;;;;;;5036338;28;20456;-79
2023/08/18 09:09:54;;;;;;;2.60;2.40;;;46.20;30.40;;;;;;5031159;28;20182;-79
2023/08/18 09:12:28;;;;;;;2.50;2.30;;;46.10;30.00;;;;;;5039830;28;20186;-80
2023/08/18 09:14:54;;;;;;;2.37;2.17;;;46.40;29.80;;;;;;5032642;28;20228;-79
2023/08/18 09:17:21;;;;;;;2.40;1.90;;;46.00;29.70;;;;;;5024495;28;20458;-79
2023/08/18 09:19:49;;;;;;;2.30;2.10;;;45.80;29.80;;;;;;5031589;28;20445;-79
2023/08/18 09:22:14;;;;;;;3.30;2.87;;;46.00;29.70;;;;;;5025011;28;20444;-79
2023/08/18 09:24:40;;;;;;;5.90;4.30;;;46.50;29.70;;;;;;5033037;28;20537;-79
2023/08/18 09:27:07;;;;;;;2.67;1.90;;;44.80;29.80;;;;;;5032407;28;20210;-79
2023/08/18 09:29:33;;;;;;;3.33;2.37;;;42.40;32.50;;;;;;5027526;28;20185;-79
2023/08/18 09:31:59;;;;;;;2.50;2.30;;;41.10;34.50;;;;;;5035274;28;20436;-79
2023/08/18 09:34:25;;;;;;;2.60;2.40;;;39.10;36.90;;;;;;5035232;28;20464;-79
2023/08/18 09:36:54;;;;;;;2.60;2.40;;;37.70;39.20;;;;;;5034125;28;20229;-79
2023/08/18 09:39:20;;;;;;;2.30;2.20;;;36.40;41.70;;;;;;5025309;28;20437;-79
2023/08/18 09:41:52;;;;;;;2.97;2.67;;;35.20;43.30;;;;;;5029958;28;20440;-79
2023/08/18 09:44:19;;;;;;;4.70;2.50;;;34.20;46.30;;;;;;5027841;28;20466;-78
2023/08/18 09:46:55;;;;;;;2.37;2.17;;;33.70;47.00;;;;;;5028115;28;20485;-79
2023/08/18 09:49:22;;;;;;;2.20;2.00;;;33.50;47.60;;;;;;5033910;28;20498;-79
2023/08/18 09:52:01;;;;;;;2.13;2.03;;;33.30;48.30;;;;;;5030129;28;21046;-79
2023/08/18 09:54:28;;;;;;;3.03;1.87;;;33.00;49.10;;;;;;5031058;28;20446;-79
2023/08/18 09:56:59;;;;;;;2.20;2.00;;;32.60;50.00;;;;;;5024582;28;20467;-79
2023/08/18 09:59:31;;;;;;;2.03;1.93;;;32.30;50.20;;;;;;5024459;28;20523;-79
2023/08/18 10:01:57;;;;;;;3.00;2.60;;;32.20;50.50;;;;;;5025040;28;20454;-80
2023/08/18 10:04:25;;;;;;;2.20;2.00;;;32.10;51.10;;;;;;5029807;28;20494;-79
2023/08/18 10:06:54;;;;;;;4.43;2.50;;;31.90;51.30;;;;;;5022884;28;20467;-79
2023/08/18 10:09:27;;;;;;;3.03;2.77;;;31.80;52.40;;;;;;5030375;28;20528;-79
2023/08/18 10:11:53;;;;;;;3.30;2.10;;;31.70;53.20;;;;;;5035335;28;20469;-79
2023/08/18 10:14:21;;;;;;;3.13;2.27;;;31.80;52.40;;;;;;5034459;28;20924;-79
2023/08/18 10:16:48;;;;;;;2.87;2.33;;;31.90;51.30;;;;;;5029282;28;20465;-79
2023/08/18 10:19:13;;;;;;;2.73;2.00;;;31.90;51.50;;;;;;5025799;28;20466;-78
2023/08/18 10:21:39;;;;;;;3.30;2.50;;;31.90;51.80;;;;;;5024814;28;20450;-77
2023/08/18 10:24:05;;;;;;;2.00;1.87;;;31.80;52.70;;;;;;5027122;28;20206;-76
2023/08/18 10:26:34;;;;;;;2.60;1.90;;;31.70;52.70;;;;;;5024957;28;20218;-77
2023/08/18 10:29:18;;;;;;;2.33;2.13;;;31.60;53.30;;;;;;5027829;28;20275;-77
2023/08/18 10:31:48;;;;;;;6.13;2.77;;;31.60;53.50;;;;;;5023299;28;21432;-77
2023/08/18 10:34:23;;;;;;;4.23;2.20;;;31.70;53.80;;;;;;5024485;28;20445;-76
2023/08/18 10:36:57;;;;;;;3.57;2.20;;;31.60;54.10;;;;;;5017084;28;21036;-77
2023/08/18 10:39:24;;;;;;;2.07;1.90;;;31.10;53.00;;;;;;5023550;28;20445;-76
2023/08/18 10:42:15;;;;;;;2.30;2.10;;;31.60;53.80;;;;;;5023943;28;20436;-76
2023/08/18 10:45:03;;;;;;;2.77;2.47;;;31.70;54.10;;;;;;5022245;28;20516;-76
2023/08/18 10:47:34;;;;;;;2.37;2.17;;;31.60;54.30;;;;;;5028153;28;20554;-76
2023/08/18 10:50:01;;;;;;;2.70;2.50;;;31.50;54.80;;;;;;5025880;28;20452;-77
2023/08/18 10:52:30;;;;;;;2.50;2.23;;;31.70;53.50;;;;;;5023000;28;20444;-76
2023/08/18 10:54:57;;;;;;;2.33;2.13;;;31.60;52.30;;;;;;5028011;28;20480;-76
2023/08/18 10:57:23;;;;;;;3.70;2.00;;;31.80;52.60;;;;;;5028008;28;20579;-76
2023/08/18 10:59:50;;;;;;;3.00;2.43;;;31.80;52.60;;;;;;5020884;28;20445;-76
2023/08/18 11:02:16;;;;;;;2.80;2.13;;;31.80;52.50;;;;;;5018914;28;20570;-76
2023/08/18 11:04:42;;;;;;;4.40;2.10;;;31.90;49.80;;;;;;5025599;28;20499;-76
2023/08/18 11:07:08;;;;;;;3.17;1.90;;;31.60;50.80;;;;;;5016894;28;20495;-76
2023/08/18 11:09:36;;;;;;;3.03;2.10;;;31.70;50.60;;;;;;5022779;28;20193;-75
2023/08/18 11:12:03;;;;;;;6.00;2.33;;;31.80;51.30;;;;;;5025946;28;20208;-76
2023/08/18 11:14:29;;;;;;;3.00;2.77;;;32.10;52.00;;;;;;5023653;28;20472;-77
2023/08/18 11:16:55;;;;;;;2.80;2.50;;;32.40;51.50;;;;;;5024632;28;20472;-77
2023/08/18 11:19:20;;;;;;;2.90;2.60;;;32.50;52.20;;;;;;5030460;28;20456;-78
2023/08/18 11:21:46;;;;;;;3.33;1.90;;;32.50;50.80;;;;;;5030456;28;20703;-79
2023/08/18 11:24:12;;;;;;;3.63;3.40;;;32.50;50.00;;;;;;5037088;28;20225;-79
2023/08/18 11:26:39;;;;;;;2.67;2.37;;;32.40;50.40;;;;;;5035339;28;20453;-78
2023/08/18 11:29:08;;;;;;;3.50;2.53;;;32.20;49.80;;;;;;5030234;28;20202;-78
2023/08/18 11:31:33;;;;;;;2.23;2.03;;;32.20;46.90;;;;;;5035791;28;20454;-80
2023/08/18 11:33:59;;;;;;;2.33;2.10;;;32.10;47.70;;;;;;5028910;28;20498;-80
2023/08/18 11:36:32;;;;;;;2.87;2.67;;;32.10;48.20;;;;;;5030283;28;20614;-80
2023/08/18 11:39:07;;;;;;;2.00;1.83;;;32.20;47.60;;;;;;5045018;28;20449;-80
2023/08/18 11:41:43;;;;;;;3.53;2.40;;;32.30;46.20;;;;;;5043825;28;20440;-79
2023/08/18 11:44:09;;;;;;;4.53;2.50;;;32.20;47.40;;;;;;5027619;28;20490;-80
2023/08/18 11:46:39;;;;;;;2.07;1.87;;;32.30;48.60;;;;;;5036374;28;20468;-80
2023/08/18 11:49:25;;;;;;;2.40;2.20;;;32.50;49.40;;;;;;5028259;28;20440;-79
2023/08/18 11:52:04;;;;;;;2.27;2.10;;;32.50;48.70;;;;;;5037592;28;20505;-80
2023/08/18 11:54:32;;;;;;;2.20;2.00;;;32.50;49.70;;;;;;5026222;28;20456;-75
2023/08/18 11:56:57;;;;;;;2.57;2.37;;;32.60;47.60;;;;;;5025581;28;20478;-75
2023/08/18 11:59:24;;;;;;;3.93;2.50;;;32.60;47.30;;;;;;5025293;28;20515;-75
2023/08/18 12:01:58;;;;;;;2.17;1.97;;;32.80;46.70;;;;;;5031408;28;20194;-76
2023/08/18 12:04:27;;;;;;;2.60;2.03;;;32.90;46.00;;;;;;5027367;28;20542;-76
2023/08/18 12:06:54;;;;;;;2.80;2.60;;;33.20;45.80;;;;;;5027885;28;20563;-76
2023/08/18 12:09:20;;;;;;;3.63;2.23;;;33.30;47.30;;;;;;5019854;28;20495;-74
2023/08/18 12:11:46;;;;;;;3.07;2.50;;;33.60;46.70;;;;;;5031076;28;21309;-77
2023/08/18 12:14:12;;;;;;;2.83;2.27;;;33.70;47.50;;;;;;5024841;28;20454;-76
2023/08/18 12:16:37;;;;;;;2.40;2.20;;;33.80;47.40;;;;;;5023460;28;20205;-76
2023/08/18 12:19:04;;;;;;;2.73;2.53;;;33.60;48.10;;;;;;5021282;28;20229;-77
2023/08/18 12:21:36;;;;;;;2.77;2.57;;;33.60;48.60;;;;;;5023527;28;20324;-76
2023/08/18 12:24:03;;;;;;;3.27;2.40;;;33.60;47.60;;;;;;5022664;28;20913;-76
2023/08/18 12:26:29;;;;;;;4.13;2.70;;;33.40;48.40;;;;;;5026974;28;20543;-76
2023/08/18 12:28:55;;;;;;;3.00;2.60;;;33.40;47.50;;;;;;5023367;28;20461;-76
2023/08/18 12:31:24;;;;;;;2.53;2.33;;;33.40;48.00;;;;;;5022236;28;20437;-76
2023/08/18 12:33:53;;;;;;;2.93;2.33;;;33.40;47.70;;;;;;5030434;28;20636;-76
2023/08/18 12:36:19;;;;;;;3.73;2.37;;;33.20;48.00;;;;;;5018705;28;20472;-76
2023/08/18 12:38:45;;;;;;;3.57;2.33;;;33.20;48.40;;;;;;5020748;28;20449;-77
2023/08/18 12:41:11;;;;;;;3.53;2.70;;;33.20;49.00;;;;;;5027414;28;20539;-76
2023/08/18 12:43:37;;;;;;;4.13;2.50;;;33.20;49.50;;;;;;5027703;28;20465;-75
2023/08/18 12:46:03;;;;;;;4.90;2.50;;;33.20;49.10;;;;;;5025099;28;20471;-75